sensor_id;sensor_type;location;lat;lon;timestamp;P1;durP1;ratioP1;P2;durP2;ratioP2
75358;SDS011;64046;51.978;5.934;2023-03-03T00:01:45;28.60;;;14.52;;
75358;SDS011;64046;51.978;5.934;2023-03-03T00:04:14;30.08;;;14.98;;
75358;SDS011;64046;51.978;5.934;2023-03-03T00:06:46;26.33;;;14.70;;
75358;SDS011;64046;51.978;5.934;2023-03-03T00:09:15;33.10;;;15.57;;
75358;SDS011;64046;51.978;5.934;2023-03-03T00:11:44;30.75;;;15.93;;
75358;SDS011;64046;51.978;5.934;2023-03-03T00:14:17;31.48;;;15.07;;
75358;SDS011;64046;51.978;5.934;2023-03-03T00:16:50;29.70;;;14.10;;
75358;SDS011;64046;51.978;5.934;2023-03-03T00:19:19;25.38;;;13.55;;
75358;SDS011;64046;51.978;5.934;2023-03-03T00:21:52;22.77;;;11.27;;
75358;SDS011;64046;51.978;5.934;2023-03-03T00:24:27;26.55;;;12.70;;
75358;SDS011;64046;51.978;5.934;2023-03-03T00:27:08;27.77;;;14.80;;
75358;SDS011;64046;51.978;5.934;2023-03-03T00:29:46;26.35;;;13.68;;
75358;SDS011;64046;51.978;5.934;2023-03-03T00:32:22;30.60;;;15.27;;
75358;SDS011;64046;51.978;5.934;2023-03-03T00:34:53;26.50;;;13.63;;
75358;SDS011;64046;51.978;5.934;2023-03-03T00:37:30;28.02;;;13.65;;
75358;SDS011;64046;51.978;5.934;2023-03-03T00:40:10;35.05;;;16.73;;
75358;SDS011;64046;51.978;5.934;2023-03-03T00:42:48;26.15;;;14.05;;
75358;SDS011;64046;51.978;5.934;2023-03-03T00:45:26;32.40;;;15.82;;
75358;SDS011;64046;51.978;5.934;2023-03-03T00:47:57;28.08;;;15.05;;
75358;SDS011;64046;51.978;5.934;2023-03-03T00:50:35;31.17;;;15.43;;
75358;SDS011;64046;51.978;5.934;2023-03-03T00:53:13;32.08;;;16.27;;
75358;SDS011;64046;51.978;5.934;2023-03-03T00:55:45;35.58;;;17.00;;
75358;SDS011;64046;51.978;5.934;2023-03-03T00:58:16;24.20;;;12.68;;
75358;SDS011;64046;51.978;5.934;2023-03-03T01:00:47;36.38;;;16.98;;
75358;SDS011;64046;51.978;5.934;2023-03-03T01:03:20;29.73;;;14.80;;
75358;SDS011;64046;51.978;5.934;2023-03-03T01:05:51;29.50;;;15.05;;
75358;SDS011;64046;51.978;5.934;2023-03-03T01:08:24;29.42;;;15.75;;
75358;SDS011;64046;51.978;5.934;2023-03-03T01:10:54;28.50;;;14.40;;
75358;SDS011;64046;51.978;5.934;2023-03-03T01:13:27;29.95;;;15.35;;
75358;SDS011;64046;51.978;5.934;2023-03-03T01:15:59;26.35;;;13.18;;
75358;SDS011;64046;51.978;5.934;2023-03-03T01:18:29;24.20;;;11.48;;
75358;SDS011;64046;51.978;5.934;2023-03-03T01:20:59;23.95;;;12.98;;
75358;SDS011;64046;51.978;5.934;2023-03-03T01:23:30;24.77;;;12.68;;
75358;SDS011;64046;51.978;5.934;2023-03-03T01:26:00;28.17;;;14.13;;
75358;SDS011;64046;51.978;5.934;2023-03-03T01:28:29;24.42;;;12.60;;
75358;SDS011;64046;51.978;5.934;2023-03-03T01:30:59;28.02;;;14.15;;
75358;SDS011;64046;51.978;5.934;2023-03-03T01:33:29;25.90;;;12.38;;
75358;SDS011;64046;51.978;5.934;2023-03-03T01:35:59;29.02;;;13.23;;
75358;SDS011;64046;51.978;5.934;2023-03-03T01:38:31;28.35;;;13.98;;
75358;SDS011;64046;51.978;5.934;2023-03-03T01:41:02;28.88;;;15.02;;
75358;SDS011;64046;51.978;5.934;2023-03-03T01:43:32;24.08;;;11.65;;
75358;SDS011;64046;51.978;5.934;2023-03-03T01:49:02;28.30;;;13.63;;
75358;SDS011;64046;51.978;5.934;2023-03-03T01:51:36;28.30;;;13.68;;
75358;SDS011;64046;51.978;5.934;2023-03-03T01:54:19;23.13;;;11.57;;
75358;SDS011;64046;51.978;5.934;2023-03-03T01:56:52;22.77;;;11.77;;
75358;SDS011;64046;51.978;5.934;2023-03-03T01:59:25;20.38;;;12.10;;
75358;SDS011;64046;51.978;5.934;2023-03-03T02:01:59;29.08;;;14.40;;
75358;SDS011;64046;51.978;5.934;2023-03-03T02:04:28;26.38;;;14.00;;
75358;SDS011;64046;51.978;5.934;2023-03-03T02:06:58;24.30;;;12.13;;
75358;SDS011;64046;51.978;5.934;2023-03-03T02:09:35;23.35;;;12.65;;
75358;SDS011;64046;51.978;5.934;2023-03-03T02:12:13;21.23;;;11.38;;
75358;SDS011;64046;51.978;5.934;2023-03-03T02:14:44;28.58;;;14.40;;
75358;SDS011;64046;51.978;5.934;2023-03-03T02:17:14;24.65;;;12.45;;
75358;SDS011;64046;51.978;5.934;2023-03-03T02:19:46;23.48;;;11.82;;
75358;SDS011;64046;51.978;5.934;2023-03-03T02:22:23;22.77;;;12.10;;
75358;SDS011;64046;51.978;5.934;2023-03-03T02:25:05;22.08;;;11.43;;
75358;SDS011;64046;51.978;5.934;2023-03-03T02:27:41;21.58;;;12.95;;
75358;SDS011;64046;51.978;5.934;2023-03-03T02:30:13;28.73;;;13.88;;
75358;SDS011;64046;51.978;5.934;2023-03-03T02:32:44;25.60;;;11.43;;
75358;SDS011;64046;51.978;5.934;2023-03-03T02:35:27;25.48;;;12.73;;
75358;SDS011;64046;51.978;5.934;2023-03-03T02:38:01;28.58;;;14.48;;
75358;SDS011;64046;51.978;5.934;2023-03-03T02:40:39;26.75;;;14.15;;
75358;SDS011;64046;51.978;5.934;2023-03-03T02:43:14;30.48;;;15.52;;
75358;SDS011;64046;51.978;5.934;2023-03-03T02:45:48;26.92;;;12.85;;
75358;SDS011;64046;51.978;5.934;2023-03-03T02:48:17;34.90;;;15.85;;
75358;SDS011;64046;51.978;5.934;2023-03-03T02:50:46;26.00;;;13.82;;
75358;SDS011;64046;51.978;5.934;2023-03-03T02:53:15;36.90;;;17.75;;
75358;SDS011;64046;51.978;5.934;2023-03-03T02:55:44;30.35;;;16.00;;
75358;SDS011;64046;51.978;5.934;2023-03-03T02:58:16;32.00;;;15.68;;
75358;SDS011;64046;51.978;5.934;2023-03-03T03:00:46;34.33;;;16.15;;
75358;SDS011;64046;51.978;5.934;2023-03-03T03:03:18;27.77;;;13.38;;
75358;SDS011;64046;51.978;5.934;2023-03-03T03:05:48;24.42;;;12.68;;
75358;SDS011;64046;51.978;5.934;2023-03-03T03:08:19;27.40;;;14.10;;
75358;SDS011;64046;51.978;5.934;2023-03-03T03:10:48;25.77;;;13.27;;
75358;SDS011;64046;51.978;5.934;2023-03-03T03:13:20;23.55;;;12.23;;
75358;SDS011;64046;51.978;5.934;2023-03-03T03:15:50;26.98;;;13.32;;
75358;SDS011;64046;51.978;5.934;2023-03-03T03:18:19;28.92;;;12.75;;
75358;SDS011;64046;51.978;5.934;2023-03-03T03:20:49;30.85;;;15.13;;
75358;SDS011;64046;51.978;5.934;2023-03-03T03:23:18;27.02;;;13.20;;
75358;SDS011;64046;51.978;5.934;2023-03-03T03:25:48;24.85;;;12.88;;
75358;SDS011;64046;51.978;5.934;2023-03-03T03:28:26;26.02;;;12.65;;
75358;SDS011;64046;51.978;5.934;2023-03-03T03:30:56;26.48;;;13.73;;
75358;SDS011;64046;51.978;5.934;2023-03-03T03:33:26;25.17;;;12.80;;
75358;SDS011;64046;51.978;5.934;2023-03-03T03:35:56;22.70;;;12.13;;
75358;SDS011;64046;51.978;5.934;2023-03-03T03:38:26;27.98;;;13.30;;
75358;SDS011;64046;51.978;5.934;2023-03-03T03:40:57;29.08;;;14.77;;
75358;SDS011;64046;51.978;5.934;2023-03-03T03:43:29;26.63;;;13.30;;
75358;SDS011;64046;51.978;5.934;2023-03-03T03:45:59;25.73;;;11.95;;
75358;SDS011;64046;51.978;5.934;2023-03-03T03:48:30;25.58;;;12.25;;
75358;SDS011;64046;51.978;5.934;2023-03-03T03:51:00;33.05;;;14.90;;
75358;SDS011;64046;51.978;5.934;2023-03-03T03:53:30;27.55;;;13.63;;
75358;SDS011;64046;51.978;5.934;2023-03-03T03:56:00;28.85;;;13.68;;
75358;SDS011;64046;51.978;5.934;2023-03-03T03:58:32;24.48;;;12.40;;
75358;SDS011;64046;51.978;5.934;2023-03-03T04:01:05;28.20;;;12.45;;
75358;SDS011;64046;51.978;5.934;2023-03-03T04:03:41;26.30;;;12.73;;
75358;SDS011;64046;51.978;5.934;2023-03-03T04:06:14;29.67;;;13.68;;
75358;SDS011;64046;51.978;5.934;2023-03-03T04:08:44;31.58;;;14.88;;
75358;SDS011;64046;51.978;5.934;2023-03-03T04:11:14;31.48;;;15.30;;
75358;SDS011;64046;51.978;5.934;2023-03-03T04:13:46;28.35;;;13.38;;
75358;SDS011;64046;51.978;5.934;2023-03-03T04:16:15;37.08;;;16.27;;
75358;SDS011;64046;51.978;5.934;2023-03-03T04:18:45;30.67;;;13.75;;
75358;SDS011;64046;51.978;5.934;2023-03-03T04:21:16;33.22;;;14.95;;
75358;SDS011;64046;51.978;5.934;2023-03-03T04:23:45;37.22;;;16.27;;
75358;SDS011;64046;51.978;5.934;2023-03-03T04:26:16;31.90;;;14.57;;
75358;SDS011;64046;51.978;5.934;2023-03-03T04:28:49;33.55;;;15.00;;
75358;SDS011;64046;51.978;5.934;2023-03-03T04:31:18;28.05;;;13.30;;
75358;SDS011;64046;51.978;5.934;2023-03-03T04:33:48;31.17;;;14.88;;
75358;SDS011;64046;51.978;5.934;2023-03-03T04:36:18;32.97;;;15.32;;
75358;SDS011;64046;51.978;5.934;2023-03-03T04:38:49;40.30;;;15.68;;
75358;SDS011;64046;51.978;5.934;2023-03-03T04:41:19;29.20;;;12.65;;
75358;SDS011;64046;51.978;5.934;2023-03-03T04:43:51;27.90;;;12.93;;
75358;SDS011;64046;51.978;5.934;2023-03-03T04:46:20;36.55;;;16.60;;
75358;SDS011;64046;51.978;5.934;2023-03-03T04:48:50;35.17;;;16.10;;
75358;SDS011;64046;51.978;5.934;2023-03-03T04:51:20;37.17;;;16.60;;
75358;SDS011;64046;51.978;5.934;2023-03-03T04:53:49;28.60;;;13.90;;
75358;SDS011;64046;51.978;5.934;2023-03-03T04:56:18;34.05;;;15.93;;
75358;SDS011;64046;51.978;5.934;2023-03-03T04:58:51;30.55;;;14.55;;
75358;SDS011;64046;51.978;5.934;2023-03-03T05:01:20;33.95;;;14.98;;
75358;SDS011;64046;51.978;5.934;2023-03-03T05:03:49;27.25;;;12.15;;
75358;SDS011;64046;51.978;5.934;2023-03-03T05:06:19;32.45;;;14.25;;
75358;SDS011;64046;51.978;5.934;2023-03-03T05:08:49;30.55;;;14.73;;
75358;SDS011;64046;51.978;5.934;2023-03-03T05:11:18;33.63;;;15.40;;
75358;SDS011;64046;51.978;5.934;2023-03-03T05:13:47;38.53;;;16.15;;
75358;SDS011;64046;51.978;5.934;2023-03-03T05:16:19;28.88;;;13.10;;
75358;SDS011;64046;51.978;5.934;2023-03-03T05:18:48;33.10;;;16.15;;
75358;SDS011;64046;51.978;5.934;2023-03-03T05:21:17;32.33;;;15.07;;
75358;SDS011;64046;51.978;5.934;2023-03-03T05:23:46;28.75;;;13.55;;
75358;SDS011;64046;51.978;5.934;2023-03-03T05:26:16;36.00;;;16.10;;
75358;SDS011;64046;51.978;5.934;2023-03-03T05:28:45;32.00;;;14.85;;
75358;SDS011;64046;51.978;5.934;2023-03-03T05:31:14;42.58;;;18.35;;
75358;SDS011;64046;51.978;5.934;2023-03-03T05:33:46;35.92;;;15.95;;
75358;SDS011;64046;51.978;5.934;2023-03-03T05:36:15;36.42;;;17.00;;
75358;SDS011;64046;51.978;5.934;2023-03-03T05:38:44;36.40;;;15.82;;
75358;SDS011;64046;51.978;5.934;2023-03-03T05:41:14;30.25;;;14.50;;
75358;SDS011;64046;51.978;5.934;2023-03-03T05:43:43;32.58;;;14.77;;
75358;SDS011;64046;51.978;5.934;2023-03-03T05:46:12;34.17;;;16.27;;
75358;SDS011;64046;51.978;5.934;2023-03-03T05:48:41;37.83;;;16.23;;
75358;SDS011;64046;51.978;5.934;2023-03-03T05:51:13;35.63;;;14.77;;
75358;SDS011;64046;51.978;5.934;2023-03-03T05:53:42;31.80;;;13.82;;
75358;SDS011;64046;51.978;5.934;2023-03-03T05:56:11;28.73;;;12.95;;
75358;SDS011;64046;51.978;5.934;2023-03-03T05:58:40;26.67;;;12.60;;
75358;SDS011;64046;51.978;5.934;2023-03-03T06:01:09;24.90;;;11.50;;
75358;SDS011;64046;51.978;5.934;2023-03-03T06:03:39;26.00;;;13.30;;
75358;SDS011;64046;51.978;5.934;2023-03-03T06:06:08;22.98;;;10.75;;
75358;SDS011;64046;51.978;5.934;2023-03-03T06:08:41;28.90;;;11.68;;
75358;SDS011;64046;51.978;5.934;2023-03-03T06:11:10;27.20;;;12.55;;
75358;SDS011;64046;51.978;5.934;2023-03-03T06:13:41;25.92;;;11.95;;
75358;SDS011;64046;51.978;5.934;2023-03-03T06:16:10;21.13;;;11.18;;
75358;SDS011;64046;51.978;5.934;2023-03-03T06:18:40;19.80;;;9.98;;
75358;SDS011;64046;51.978;5.934;2023-03-03T06:21:09;19.17;;;9.77;;
75358;SDS011;64046;51.978;5.934;2023-03-03T06:23:41;20.60;;;10.75;;
75358;SDS011;64046;51.978;5.934;2023-03-03T06:26:10;16.77;;;8.65;;
75358;SDS011;64046;51.978;5.934;2023-03-03T06:28:39;19.40;;;9.27;;
75358;SDS011;64046;51.978;5.934;2023-03-03T06:31:09;24.05;;;11.60;;
75358;SDS011;64046;51.978;5.934;2023-03-03T06:33:38;21.38;;;10.77;;
75358;SDS011;64046;51.978;5.934;2023-03-03T06:36:07;17.30;;;9.05;;
75358;SDS011;64046;51.978;5.934;2023-03-03T06:38:36;26.83;;;12.18;;
75358;SDS011;64046;51.978;5.934;2023-03-03T06:41:08;23.65;;;11.25;;
75358;SDS011;64046;51.978;5.934;2023-03-03T06:43:38;23.05;;;11.93;;
75358;SDS011;64046;51.978;5.934;2023-03-03T06:46:07;21.92;;;10.55;;
75358;SDS011;64046;51.978;5.934;2023-03-03T06:48:36;26.10;;;12.75;;
75358;SDS011;64046;51.978;5.934;2023-03-03T06:51:11;24.55;;;11.15;;
75358;SDS011;64046;51.978;5.934;2023-03-03T06:53:51;25.98;;;12.07;;
75358;SDS011;64046;51.978;5.934;2023-03-03T06:56:25;20.67;;;11.25;;
75358;SDS011;64046;51.978;5.934;2023-03-03T06:58:55;20.23;;;9.20;;
75358;SDS011;64046;51.978;5.934;2023-03-03T07:01:27;15.55;;;7.50;;
75358;SDS011;64046;51.978;5.934;2023-03-03T07:04:04;14.73;;;7.20;;
75358;SDS011;64046;51.978;5.934;2023-03-03T07:06:38;15.75;;;7.63;;
75358;SDS011;64046;51.978;5.934;2023-03-03T07:09:08;15.77;;;6.75;;
75358;SDS011;64046;51.978;5.934;2023-03-03T07:11:48;14.85;;;6.32;;
75358;SDS011;64046;51.978;5.934;2023-03-03T07:14:18;15.43;;;8.02;;
75358;SDS011;64046;51.978;5.934;2023-03-03T07:16:50;13.20;;;6.63;;
75358;SDS011;64046;51.978;5.934;2023-03-03T07:19:26;13.25;;;6.43;;
75358;SDS011;64046;51.978;5.934;2023-03-03T07:21:59;15.43;;;7.55;;
75358;SDS011;64046;51.978;5.934;2023-03-03T07:24:34;13.00;;;6.53;;
75358;SDS011;64046;51.978;5.934;2023-03-03T07:27:09;13.75;;;6.35;;
75358;SDS011;64046;51.978;5.934;2023-03-03T07:29:41;12.57;;;5.68;;
75358;SDS011;64046;51.978;5.934;2023-03-03T07:32:18;12.85;;;5.43;;
75358;SDS011;64046;51.978;5.934;2023-03-03T07:34:53;14.32;;;7.38;;
75358;SDS011;64046;51.978;5.934;2023-03-03T07:37:28;12.80;;;6.03;;
75358;SDS011;64046;51.978;5.934;2023-03-03T07:40:05;15.48;;;7.40;;
75358;SDS011;64046;51.978;5.934;2023-03-03T07:42:59;18.40;;;7.93;;
75358;SDS011;64046;51.978;5.934;2023-03-03T07:45:35;14.88;;;6.68;;
75358;SDS011;64046;51.978;5.934;2023-03-03T07:48:07;11.65;;;6.35;;
75358;SDS011;64046;51.978;5.934;2023-03-03T07:50:45;13.10;;;6.47;;
75358;SDS011;64046;51.978;5.934;2023-03-03T07:53:20;13.10;;;6.95;;
75358;SDS011;64046;51.978;5.934;2023-03-03T07:55:53;14.00;;;6.72;;
75358;SDS011;64046;51.978;5.934;2023-03-03T07:58:26;18.50;;;7.93;;
75358;SDS011;64046;51.978;5.934;2023-03-03T08:01:23;14.95;;;6.78;;
75358;SDS011;64046;51.978;5.934;2023-03-03T08:04:09;13.93;;;7.07;;
75358;SDS011;64046;51.978;5.934;2023-03-03T08:06:46;13.23;;;6.60;;
75358;SDS011;64046;51.978;5.934;2023-03-03T08:12:22;11.70;;;6.03;;
75358;SDS011;64046;51.978;5.934;2023-03-03T08:15:07;14.55;;;7.20;;
75358;SDS011;64046;51.978;5.934;2023-03-03T08:17:44;15.00;;;7.15;;
75358;SDS011;64046;51.978;5.934;2023-03-03T08:23:14;14.35;;;6.82;;
75358;SDS011;64046;51.978;5.934;2023-03-03T08:25:45;13.15;;;6.63;;
75358;SDS011;64046;51.978;5.934;2023-03-03T08:28:15;12.77;;;6.28;;
75358;SDS011;64046;51.978;5.934;2023-03-03T08:30:47;11.63;;;6.15;;
75358;SDS011;64046;51.978;5.934;2023-03-03T08:33:17;15.13;;;6.03;;
75358;SDS011;64046;51.978;5.934;2023-03-03T08:35:46;12.15;;;5.72;;
75358;SDS011;64046;51.978;5.934;2023-03-03T08:38:16;13.60;;;6.10;;
75358;SDS011;64046;51.978;5.934;2023-03-03T08:40:47;13.40;;;6.65;;
75358;SDS011;64046;51.978;5.934;2023-03-03T08:43:17;14.23;;;6.78;;
75358;SDS011;64046;51.978;5.934;2023-03-03T08:45:50;11.40;;;5.72;;
75358;SDS011;64046;51.978;5.934;2023-03-03T08:48:21;18.70;;;7.57;;
75358;SDS011;64046;51.978;5.934;2023-03-03T08:50:50;12.63;;;6.15;;
75358;SDS011;64046;51.978;5.934;2023-03-03T08:53:20;12.25;;;5.85;;
75358;SDS011;64046;51.978;5.934;2023-03-03T08:55:50;11.35;;;5.55;;
75358;SDS011;64046;51.978;5.934;2023-03-03T08:58:19;12.68;;;5.43;;
75358;SDS011;64046;51.978;5.934;2023-03-03T09:00:51;11.40;;;6.03;;
75358;SDS011;64046;51.978;5.934;2023-03-03T09:03:21;13.80;;;6.10;;
75358;SDS011;64046;51.978;5.934;2023-03-03T09:05:50;10.48;;;5.25;;
75358;SDS011;64046;51.978;5.934;2023-03-03T09:08:19;12.65;;;5.80;;
75358;SDS011;64046;51.978;5.934;2023-03-03T09:10:48;15.30;;;6.20;;
75358;SDS011;64046;51.978;5.934;2023-03-03T09:13:17;12.00;;;5.22;;
75358;SDS011;64046;51.978;5.934;2023-03-03T09:15:47;11.45;;;5.88;;
75358;SDS011;64046;51.978;5.934;2023-03-03T09:18:19;12.23;;;5.35;;
75358;SDS011;64046;51.978;5.934;2023-03-03T09:20:50;11.07;;;6.13;;
75358;SDS011;64046;51.978;5.934;2023-03-03T09:23:29;10.15;;;5.25;;
75358;SDS011;64046;51.978;5.934;2023-03-03T09:26:12;14.40;;;6.30;;
75358;SDS011;64046;51.978;5.934;2023-03-03T09:28:51;10.50;;;5.47;;
75358;SDS011;64046;51.978;5.934;2023-03-03T09:31:23;14.65;;;5.30;;
75358;SDS011;64046;51.978;5.934;2023-03-03T09:33:56;10.13;;;5.63;;
75358;SDS011;64046;51.978;5.934;2023-03-03T09:36:26;16.67;;;6.03;;
75358;SDS011;64046;51.978;5.934;2023-03-03T09:38:57;11.27;;;5.60;;
75358;SDS011;64046;51.978;5.934;2023-03-03T09:41:40;13.95;;;4.72;;
75358;SDS011;64046;51.978;5.934;2023-03-03T09:44:34;9.00;;;4.28;;
75358;SDS011;64046;51.978;5.934;2023-03-03T09:47:26;11.48;;;5.78;;
75358;SDS011;64046;51.978;5.934;2023-03-03T09:50:15;10.38;;;5.32;;
75358;SDS011;64046;51.978;5.934;2023-03-03T09:52:51;11.13;;;4.40;;
75358;SDS011;64046;51.978;5.934;2023-03-03T09:55:34;7.70;;;4.22;;
75358;SDS011;64046;51.978;5.934;2023-03-03T09:58:17;10.35;;;4.65;;
75358;SDS011;64046;51.978;5.934;2023-03-03T10:01:00;7.65;;;4.57;;
75358;SDS011;64046;51.978;5.934;2023-03-03T10:03:58;10.25;;;4.85;;
75358;SDS011;64046;51.978;5.934;2023-03-03T10:06:46;9.18;;;4.60;;
75358;SDS011;64046;51.978;5.934;2023-03-03T10:09:33;9.73;;;5.13;;
75358;SDS011;64046;51.978;5.934;2023-03-03T10:12:15;12.05;;;4.70;;
75358;SDS011;64046;51.978;5.934;2023-03-03T10:15:02;7.38;;;3.88;;
75358;SDS011;64046;51.978;5.934;2023-03-03T10:17:47;6.22;;;3.80;;
75358;SDS011;64046;51.978;5.934;2023-03-03T10:20:30;6.65;;;3.90;;
75358;SDS011;64046;51.978;5.934;2023-03-03T10:23:09;7.38;;;3.60;;
75358;SDS011;64046;51.978;5.934;2023-03-03T10:25:52;6.50;;;3.72;;
75358;SDS011;64046;51.978;5.934;2023-03-03T10:28:32;8.15;;;4.20;;
75358;SDS011;64046;51.978;5.934;2023-03-03T10:31:22;8.52;;;4.45;;
75358;SDS011;64046;51.978;5.934;2023-03-03T10:34:05;7.70;;;3.70;;
75358;SDS011;64046;51.978;5.934;2023-03-03T10:36:47;8.45;;;4.43;;
75358;SDS011;64046;51.978;5.934;2023-03-03T10:39:29;6.90;;;3.65;;
75358;SDS011;64046;51.978;5.934;2023-03-03T10:42:10;11.55;;;4.22;;
75358;SDS011;64046;51.978;5.934;2023-03-03T10:44:52;7.25;;;4.35;;
75358;SDS011;64046;51.978;5.934;2023-03-03T10:47:32;9.93;;;4.55;;
75358;SDS011;64046;51.978;5.934;2023-03-03T10:50:13;8.93;;;4.30;;
75358;SDS011;64046;51.978;5.934;2023-03-03T10:52:49;6.82;;;4.00;;
75358;SDS011;64046;51.978;5.934;2023-03-03T10:55:30;7.57;;;3.65;;
75358;SDS011;64046;51.978;5.934;2023-03-03T10:58:17;6.55;;;3.90;;
75358;SDS011;64046;51.978;5.934;2023-03-03T11:01:03;8.60;;;4.05;;
75358;SDS011;64046;51.978;5.934;2023-03-03T11:06:32;4.95;;;3.22;;
75358;SDS011;64046;51.978;5.934;2023-03-03T11:09:09;7.60;;;3.53;;
75358;SDS011;64046;51.978;5.934;2023-03-03T11:11:56;7.45;;;3.50;;
75358;SDS011;64046;51.978;5.934;2023-03-03T11:14:30;5.18;;;3.58;;
75358;SDS011;64046;51.978;5.934;2023-03-03T11:17:04;4.72;;;2.97;;
75358;SDS011;64046;51.978;5.934;2023-03-03T11:19:46;6.90;;;3.10;;
75358;SDS011;64046;51.978;5.934;2023-03-03T11:22:27;6.85;;;3.80;;
75358;SDS011;64046;51.978;5.934;2023-03-03T11:25:15;5.90;;;3.20;;
75358;SDS011;64046;51.978;5.934;2023-03-03T11:33:42;6.22;;;3.63;;
75358;SDS011;64046;51.978;5.934;2023-03-03T11:36:22;6.18;;;3.42;;
75358;SDS011;64046;51.978;5.934;2023-03-03T11:38:57;5.80;;;3.40;;
75358;SDS011;64046;51.978;5.934;2023-03-03T11:41:30;4.53;;;3.10;;
75358;SDS011;64046;51.978;5.934;2023-03-03T11:44:14;6.30;;;2.78;;
75358;SDS011;64046;51.978;5.934;2023-03-03T11:46:48;6.75;;;3.20;;
75358;SDS011;64046;51.978;5.934;2023-03-03T11:49:21;4.07;;;2.60;;
75358;SDS011;64046;51.978;5.934;2023-03-03T11:52:00;7.20;;;3.70;;
75358;SDS011;64046;51.978;5.934;2023-03-03T11:54:36;3.97;;;2.30;;
75358;SDS011;64046;51.978;5.934;2023-03-03T11:57:15;5.90;;;2.33;;
75358;SDS011;64046;51.978;5.934;2023-03-03T11:59:58;9.23;;;2.85;;
75358;SDS011;64046;51.978;5.934;2023-03-03T12:02:54;4.07;;;2.53;;
75358;SDS011;64046;51.978;5.934;2023-03-03T12:05:38;5.72;;;3.20;;
75358;SDS011;64046;51.978;5.934;2023-03-03T12:08:18;4.57;;;2.47;;
75358;SDS011;64046;51.978;5.934;2023-03-03T12:10:56;7.05;;;3.00;;
75358;SDS011;64046;51.978;5.934;2023-03-03T12:13:36;3.78;;;2.38;;
75358;SDS011;64046;51.978;5.934;2023-03-03T12:16:19;3.90;;;2.30;;
75358;SDS011;64046;51.978;5.934;2023-03-03T12:19:02;3.70;;;2.30;;
75358;SDS011;64046;51.978;5.934;2023-03-03T12:21:47;4.72;;;2.55;;
75358;SDS011;64046;51.978;5.934;2023-03-03T12:24:30;5.63;;;2.38;;
75358;SDS011;64046;51.978;5.934;2023-03-03T12:27:13;5.68;;;2.55;;
75358;SDS011;64046;51.978;5.934;2023-03-03T12:29:52;5.95;;;2.45;;
75358;SDS011;64046;51.978;5.934;2023-03-03T12:32:37;3.80;;;1.95;;
75358;SDS011;64046;51.978;5.934;2023-03-03T12:35:24;4.20;;;2.72;;
75358;SDS011;64046;51.978;5.934;2023-03-03T12:38:00;3.08;;;2.20;;
75358;SDS011;64046;51.978;5.934;2023-03-03T12:40:39;3.53;;;2.20;;
75358;SDS011;64046;51.978;5.934;2023-03-03T12:43:16;6.20;;;2.25;;
75358;SDS011;64046;51.978;5.934;2023-03-03T12:45:55;4.75;;;1.90;;
75358;SDS011;64046;51.978;5.934;2023-03-03T12:48:37;5.93;;;3.22;;
75358;SDS011;64046;51.978;5.934;2023-03-03T12:51:12;3.90;;;2.00;;
75358;SDS011;64046;51.978;5.934;2023-03-03T12:54:05;3.83;;;2.30;;
75358;SDS011;64046;51.978;5.934;2023-03-03T12:56:47;3.88;;;1.85;;
75358;SDS011;64046;51.978;5.934;2023-03-03T12:59:24;6.13;;;2.05;;
75358;SDS011;64046;51.978;5.934;2023-03-03T13:02:12;8.20;;;2.33;;
75358;SDS011;64046;51.978;5.934;2023-03-03T13:04:59;4.00;;;2.47;;
75358;SDS011;64046;51.978;5.934;2023-03-03T13:07:40;2.70;;;2.08;;
75358;SDS011;64046;51.978;5.934;2023-03-03T13:10:15;4.72;;;1.92;;
75358;SDS011;64046;51.978;5.934;2023-03-03T13:12:52;4.35;;;2.13;;
75358;SDS011;64046;51.978;5.934;2023-03-03T13:15:27;2.42;;;1.70;;
75358;SDS011;64046;51.978;5.934;2023-03-03T13:18:00;2.20;;;1.58;;
75358;SDS011;64046;51.978;5.934;2023-03-03T13:20:48;3.35;;;1.77;;
75358;SDS011;64046;51.978;5.934;2023-03-03T13:23:21;4.40;;;2.17;;
75358;SDS011;64046;51.978;5.934;2023-03-03T13:26:05;5.25;;;2.20;;
75358;SDS011;64046;51.978;5.934;2023-03-03T13:28:39;5.47;;;2.22;;
75358;SDS011;64046;51.978;5.934;2023-03-03T13:31:17;4.20;;;2.17;;
75358;SDS011;64046;51.978;5.934;2023-03-03T13:33:50;6.55;;;2.38;;
75358;SDS011;64046;51.978;5.934;2023-03-03T13:36:25;4.35;;;2.25;;
75358;SDS011;64046;51.978;5.934;2023-03-03T13:38:59;8.45;;;2.17;;
75358;SDS011;64046;51.978;5.934;2023-03-03T13:41:35;3.42;;;1.90;;
75358;SDS011;64046;51.978;5.934;2023-03-03T13:44:14;2.70;;;1.95;;
75358;SDS011;64046;51.978;5.934;2023-03-03T13:46:55;4.82;;;1.88;;
75358;SDS011;64046;51.978;5.934;2023-03-03T13:49:42;2.60;;;1.60;;
75358;SDS011;64046;51.978;5.934;2023-03-03T13:52:23;3.42;;;1.80;;
75358;SDS011;64046;51.978;5.934;2023-03-03T13:54:59;5.63;;;2.17;;
75358;SDS011;64046;51.978;5.934;2023-03-03T14:00:34;5.43;;;2.20;;
75358;SDS011;64046;51.978;5.934;2023-03-03T14:03:19;5.22;;;1.92;;
75358;SDS011;64046;51.978;5.934;2023-03-03T14:06:00;4.93;;;1.77;;
75358;SDS011;64046;51.978;5.934;2023-03-03T14:08:39;4.85;;;2.10;;
75358;SDS011;64046;51.978;5.934;2023-03-03T14:11:21;8.50;;;2.13;;
75358;SDS011;64046;51.978;5.934;2023-03-03T14:13:58;4.93;;;2.28;;
75358;SDS011;64046;51.978;5.934;2023-03-03T14:16:36;4.70;;;2.30;;
75358;SDS011;64046;51.978;5.934;2023-03-03T14:19:16;7.07;;;2.63;;
75358;SDS011;64046;51.978;5.934;2023-03-03T14:21:51;4.20;;;2.30;;
75358;SDS011;64046;51.978;5.934;2023-03-03T14:24:34;4.18;;;2.47;;
75358;SDS011;64046;51.978;5.934;2023-03-03T14:27:24;4.82;;;2.15;;
75358;SDS011;64046;51.978;5.934;2023-03-03T14:29:55;6.88;;;1.95;;
75358;SDS011;64046;51.978;5.934;2023-03-03T14:32:25;4.35;;;2.42;;
75358;SDS011;64046;51.978;5.934;2023-03-03T14:34:58;4.32;;;2.35;;
75358;SDS011;64046;51.978;5.934;2023-03-03T14:37:41;4.43;;;2.50;;
75358;SDS011;64046;51.978;5.934;2023-03-03T14:40:18;3.70;;;2.13;;
75358;SDS011;64046;51.978;5.934;2023-03-03T14:42:52;3.60;;;2.08;;
75358;SDS011;64046;51.978;5.934;2023-03-03T14:45:28;6.60;;;2.38;;
75358;SDS011;64046;51.978;5.934;2023-03-03T14:48:05;4.60;;;2.50;;
75358;SDS011;64046;51.978;5.934;2023-03-03T14:50:40;5.07;;;2.03;;
75358;SDS011;64046;51.978;5.934;2023-03-03T14:53:13;4.85;;;2.10;;
75358;SDS011;64046;51.978;5.934;2023-03-03T14:55:46;6.85;;;2.40;;
75358;SDS011;64046;51.978;5.934;2023-03-03T14:58:23;6.25;;;2.42;;
75358;SDS011;64046;51.978;5.934;2023-03-03T15:03:51;5.70;;;2.15;;
75358;SDS011;64046;51.978;5.934;2023-03-03T15:06:32;4.57;;;1.83;;
75358;SDS011;64046;51.978;5.934;2023-03-03T15:12:16;5.15;;;2.47;;
75358;SDS011;64046;51.978;5.934;2023-03-03T15:14:47;3.92;;;2.30;;
75358;SDS011;64046;51.978;5.934;2023-03-03T15:17:27;5.93;;;2.80;;
75358;SDS011;64046;51.978;5.934;2023-03-03T15:23:04;10.13;;;5.10;;
75358;SDS011;64046;51.978;5.934;2023-03-03T15:25:46;10.40;;;5.82;;
75358;SDS011;64046;51.978;5.934;2023-03-03T15:28:29;10.27;;;6.07;;
75358;SDS011;64046;51.978;5.934;2023-03-03T15:31:06;15.57;;;8.43;;
75358;SDS011;64046;51.978;5.934;2023-03-03T15:33:43;15.55;;;7.78;;
75358;SDS011;64046;51.978;5.934;2023-03-03T15:36:22;16.15;;;8.88;;
75358;SDS011;64046;51.978;5.934;2023-03-03T15:39:04;14.15;;;9.18;;
75358;SDS011;64046;51.978;5.934;2023-03-03T15:41:46;13.50;;;9.07;;
75358;SDS011;64046;51.978;5.934;2023-03-03T15:44:30;15.50;;;9.02;;
75358;SDS011;64046;51.978;5.934;2023-03-03T15:47:13;12.35;;;7.10;;
75358;SDS011;64046;51.978;5.934;2023-03-03T15:50:00;7.88;;;5.45;;